sensor_id;sensor_type;location;lat;lon;timestamp;P1;durP1;ratioP1;P2;durP2;ratioP2
15312;SDS011;7757;52.626;4.746;2023-05-07T00:01:17;13.15;;;5.63;;
15312;SDS011;7757;52.626;4.746;2023-05-07T00:04:04;19.55;;;7.95;;
15312;SDS011;7757;52.626;4.746;2023-05-07T00:06:51;19.20;;;9.43;;
15312;SDS011;7757;52.626;4.746;2023-05-07T00:09:36;15.60;;;7.45;;
15312;SDS011;7757;52.626;4.746;2023-05-07T00:12:27;19.65;;;9.38;;
15312;SDS011;7757;52.626;4.746;2023-05-07T00:15:15;17.88;;;8.07;;
15312;SDS011;7757;52.626;4.746;2023-05-07T00:18:01;13.80;;;6.43;;
15312;SDS011;7757;52.626;4.746;2023-05-07T00:20:48;15.90;;;8.45;;
15312;SDS011;7757;52.626;4.746;2023-05-07T00:23:34;17.00;;;7.40;;
15312;SDS011;7757;52.626;4.746;2023-05-07T00:26:19;16.67;;;7.03;;
15312;SDS011;7757;52.626;4.746;2023-05-07T00:29:08;16.38;;;7.22;;
15312;SDS011;7757;52.626;4.746;2023-05-07T00:31:53;18.73;;;8.25;;
15312;SDS011;7757;52.626;4.746;2023-05-07T00:34:42;15.85;;;7.78;;
15312;SDS011;7757;52.626;4.746;2023-05-07T00:37:31;16.85;;;8.75;;
15312;SDS011;7757;52.626;4.746;2023-05-07T00:40:16;17.60;;;8.27;;
15312;SDS011;7757;52.626;4.746;2023-05-07T00:43:02;14.27;;;6.50;;
15312;SDS011;7757;52.626;4.746;2023-05-07T00:45:47;16.52;;;7.20;;
15312;SDS011;7757;52.626;4.746;2023-05-07T00:48:33;17.15;;;7.35;;
15312;SDS011;7757;52.626;4.746;2023-05-07T00:51:24;14.48;;;6.65;;
15312;SDS011;7757;52.626;4.746;2023-05-07T00:54:15;15.93;;;7.30;;
15312;SDS011;7757;52.626;4.746;2023-05-07T00:57:01;14.98;;;6.32;;
15312;SDS011;7757;52.626;4.746;2023-05-07T00:59:47;17.75;;;7.35;;
15312;SDS011;7757;52.626;4.746;2023-05-07T01:02:33;22.17;;;7.72;;
15312;SDS011;7757;52.626;4.746;2023-05-07T01:05:18;16.88;;;7.00;;
15312;SDS011;7757;52.626;4.746;2023-05-07T01:08:05;19.10;;;6.40;;
15312;SDS011;7757;52.626;4.746;2023-05-07T01:10:52;19.73;;;9.30;;
15312;SDS011;7757;52.626;4.746;2023-05-07T01:13:40;18.88;;;8.15;;
15312;SDS011;7757;52.626;4.746;2023-05-07T01:16:29;16.55;;;8.00;;
15312;SDS011;7757;52.626;4.746;2023-05-07T01:19:15;18.55;;;8.48;;
15312;SDS011;7757;52.626;4.746;2023-05-07T01:22:03;16.65;;;7.28;;
15312;SDS011;7757;52.626;4.746;2023-05-07T01:24:54;17.65;;;9.15;;
15312;SDS011;7757;52.626;4.746;2023-05-07T01:27:46;17.63;;;7.68;;
15312;SDS011;7757;52.626;4.746;2023-05-07T01:30:34;16.58;;;7.03;;
15312;SDS011;7757;52.626;4.746;2023-05-07T01:33:21;20.30;;;7.32;;
15312;SDS011;7757;52.626;4.746;2023-05-07T01:36:06;15.15;;;6.53;;
15312;SDS011;7757;52.626;4.746;2023-05-07T01:38:53;20.50;;;8.73;;
15312;SDS011;7757;52.626;4.746;2023-05-07T01:41:44;20.30;;;7.50;;
15312;SDS011;7757;52.626;4.746;2023-05-07T01:44:30;19.27;;;8.98;;
15312;SDS011;7757;52.626;4.746;2023-05-07T01:47:16;13.48;;;6.22;;
15312;SDS011;7757;52.626;4.746;2023-05-07T01:50:02;19.70;;;7.13;;
15312;SDS011;7757;52.626;4.746;2023-05-07T01:52:51;16.80;;;7.43;;
15312;SDS011;7757;52.626;4.746;2023-05-07T01:55:37;19.30;;;8.75;;
15312;SDS011;7757;52.626;4.746;2023-05-07T01:58:26;18.35;;;8.48;;
15312;SDS011;7757;52.626;4.746;2023-05-07T02:01:12;17.30;;;8.43;;
15312;SDS011;7757;52.626;4.746;2023-05-07T02:04:00;18.77;;;8.20;;
15312;SDS011;7757;52.626;4.746;2023-05-07T02:06:46;17.80;;;7.80;;
15312;SDS011;7757;52.626;4.746;2023-05-07T02:09:31;20.65;;;9.23;;
15312;SDS011;7757;52.626;4.746;2023-05-07T02:12:20;19.23;;;7.65;;
15312;SDS011;7757;52.626;4.746;2023-05-07T02:15:10;24.30;;;7.95;;
15312;SDS011;7757;52.626;4.746;2023-05-07T02:17:58;18.33;;;8.65;;
15312;SDS011;7757;52.626;4.746;2023-05-07T02:20:44;19.27;;;8.93;;
15312;SDS011;7757;52.626;4.746;2023-05-07T02:23:30;20.30;;;10.60;;
15312;SDS011;7757;52.626;4.746;2023-05-07T02:26:15;22.15;;;10.63;;
15312;SDS011;7757;52.626;4.746;2023-05-07T02:29:03;18.90;;;8.43;;
15312;SDS011;7757;52.626;4.746;2023-05-07T02:31:52;21.95;;;11.10;;
15312;SDS011;7757;52.626;4.746;2023-05-07T02:34:37;25.85;;;12.63;;
15312;SDS011;7757;52.626;4.746;2023-05-07T02:37:23;22.90;;;10.80;;
15312;SDS011;7757;52.626;4.746;2023-05-07T02:40:12;23.10;;;9.80;;
15312;SDS011;7757;52.626;4.746;2023-05-07T02:42:57;19.23;;;8.82;;
15312;SDS011;7757;52.626;4.746;2023-05-07T02:45:43;18.67;;;9.43;;
15312;SDS011;7757;52.626;4.746;2023-05-07T02:48:29;16.10;;;7.68;;
15312;SDS011;7757;52.626;4.746;2023-05-07T02:51:19;21.00;;;10.80;;
15312;SDS011;7757;52.626;4.746;2023-05-07T02:54:06;21.20;;;9.20;;
15312;SDS011;7757;52.626;4.746;2023-05-07T02:56:51;18.70;;;8.38;;
15312;SDS011;7757;52.626;4.746;2023-05-07T02:59:43;17.95;;;9.13;;
15312;SDS011;7757;52.626;4.746;2023-05-07T03:02:34;18.35;;;8.10;;
15312;SDS011;7757;52.626;4.746;2023-05-07T03:05:21;19.48;;;9.57;;
15312;SDS011;7757;52.626;4.746;2023-05-07T03:08:07;17.92;;;8.30;;
15312;SDS011;7757;52.626;4.746;2023-05-07T03:10:53;19.63;;;8.75;;
15312;SDS011;7757;52.626;4.746;2023-05-07T03:13:38;15.52;;;7.32;;
15312;SDS011;7757;52.626;4.746;2023-05-07T03:16:23;17.50;;;7.07;;
15312;SDS011;7757;52.626;4.746;2023-05-07T03:19:15;19.45;;;6.97;;
15312;SDS011;7757;52.626;4.746;2023-05-07T03:22:02;15.40;;;7.22;;
15312;SDS011;7757;52.626;4.746;2023-05-07T03:24:47;16.73;;;8.18;;
15312;SDS011;7757;52.626;4.746;2023-05-07T03:27:37;22.88;;;6.93;;
15312;SDS011;7757;52.626;4.746;2023-05-07T03:30:23;17.00;;;6.35;;
15312;SDS011;7757;52.626;4.746;2023-05-07T03:33:12;16.52;;;6.32;;
15312;SDS011;7757;52.626;4.746;2023-05-07T03:35:57;14.05;;;6.32;;
15312;SDS011;7757;52.626;4.746;2023-05-07T03:38:44;16.38;;;7.15;;
15312;SDS011;7757;52.626;4.746;2023-05-07T03:41:32;17.27;;;6.47;;
15312;SDS011;7757;52.626;4.746;2023-05-07T03:44:18;15.15;;;5.90;;
15312;SDS011;7757;52.626;4.746;2023-05-07T03:47:09;14.80;;;6.55;;
15312;SDS011;7757;52.626;4.746;2023-05-07T03:49:55;15.13;;;5.93;;
15312;SDS011;7757;52.626;4.746;2023-05-07T03:52:40;12.95;;;5.35;;
15312;SDS011;7757;52.626;4.746;2023-05-07T03:55:27;14.30;;;5.90;;
15312;SDS011;7757;52.626;4.746;2023-05-07T03:58:15;15.98;;;6.40;;
15312;SDS011;7757;52.626;4.746;2023-05-07T04:01:04;14.43;;;5.78;;
15312;SDS011;7757;52.626;4.746;2023-05-07T04:03:51;14.50;;;6.00;;
15312;SDS011;7757;52.626;4.746;2023-05-07T04:06:43;14.50;;;6.32;;
15312;SDS011;7757;52.626;4.746;2023-05-07T04:09:28;13.30;;;4.90;;
15312;SDS011;7757;52.626;4.746;2023-05-07T04:12:17;12.88;;;5.25;;
15312;SDS011;7757;52.626;4.746;2023-05-07T04:15:03;13.45;;;5.00;;
15312;SDS011;7757;52.626;4.746;2023-05-07T04:17:49;15.23;;;5.45;;
15312;SDS011;7757;52.626;4.746;2023-05-07T04:20:34;13.05;;;5.80;;
15312;SDS011;7757;52.626;4.746;2023-05-07T04:23:21;11.45;;;4.60;;
15312;SDS011;7757;52.626;4.746;2023-05-07T04:26:06;12.80;;;4.97;;
15312;SDS011;7757;52.626;4.746;2023-05-07T04:28:56;13.05;;;4.72;;
15312;SDS011;7757;52.626;4.746;2023-05-07T04:31:42;12.68;;;3.95;;
15312;SDS011;7757;52.626;4.746;2023-05-07T04:34:28;13.32;;;4.78;;
15312;SDS011;7757;52.626;4.746;2023-05-07T04:37:16;13.10;;;5.65;;
15312;SDS011;7757;52.626;4.746;2023-05-07T04:40:01;13.88;;;4.28;;
15312;SDS011;7757;52.626;4.746;2023-05-07T04:42:47;17.38;;;4.93;;
15312;SDS011;7757;52.626;4.746;2023-05-07T04:45:34;11.27;;;3.80;;
15312;SDS011;7757;52.626;4.746;2023-05-07T04:48:20;13.75;;;4.28;;
15312;SDS011;7757;52.626;4.746;2023-05-07T04:51:05;10.60;;;3.70;;
15312;SDS011;7757;52.626;4.746;2023-05-07T04:53:51;11.45;;;3.92;;
15312;SDS011;7757;52.626;4.746;2023-05-07T04:56:36;13.55;;;4.68;;
15312;SDS011;7757;52.626;4.746;2023-05-07T04:59:21;13.48;;;5.32;;
15312;SDS011;7757;52.626;4.746;2023-05-07T05:02:08;10.85;;;3.80;;
15312;SDS011;7757;52.626;4.746;2023-05-07T05:04:54;16.00;;;5.45;;
15312;SDS011;7757;52.626;4.746;2023-05-07T05:07:43;11.63;;;3.80;;
15312;SDS011;7757;52.626;4.746;2023-05-07T05:10:28;14.07;;;4.95;;
15312;SDS011;7757;52.626;4.746;2023-05-07T05:13:13;16.77;;;5.28;;
15312;SDS011;7757;52.626;4.746;2023-05-07T05:16:02;15.45;;;4.38;;
15312;SDS011;7757;52.626;4.746;2023-05-07T05:18:49;14.65;;;4.68;;
15312;SDS011;7757;52.626;4.746;2023-05-07T05:21:38;12.43;;;3.90;;
15312;SDS011;7757;52.626;4.746;2023-05-07T05:24:27;14.23;;;5.40;;
15312;SDS011;7757;52.626;4.746;2023-05-07T05:27:12;12.63;;;3.83;;
15312;SDS011;7757;52.626;4.746;2023-05-07T05:30:01;10.75;;;3.88;;
15312;SDS011;7757;52.626;4.746;2023-05-07T05:32:46;12.63;;;4.25;;
15312;SDS011;7757;52.626;4.746;2023-05-07T05:35:33;10.60;;;3.65;;
15312;SDS011;7757;52.626;4.746;2023-05-07T05:38:18;14.10;;;3.63;;
15312;SDS011;7757;52.626;4.746;2023-05-07T05:41:13;11.95;;;4.13;;
15312;SDS011;7757;52.626;4.746;2023-05-07T05:43:59;13.13;;;4.20;;
15312;SDS011;7757;52.626;4.746;2023-05-07T05:46:44;14.65;;;4.70;;
15312;SDS011;7757;52.626;4.746;2023-05-07T05:49:29;13.48;;;4.15;;
15312;SDS011;7757;52.626;4.746;2023-05-07T05:52:23;12.68;;;3.58;;
15312;SDS011;7757;52.626;4.746;2023-05-07T05:55:09;15.82;;;5.97;;
15312;SDS011;7757;52.626;4.746;2023-05-07T05:57:56;11.50;;;3.65;;
15312;SDS011;7757;52.626;4.746;2023-05-07T06:00:41;12.32;;;3.78;;
15312;SDS011;7757;52.626;4.746;2023-05-07T06:03:30;10.60;;;3.58;;
15312;SDS011;7757;52.626;4.746;2023-05-07T06:06:16;10.38;;;3.50;;
15312;SDS011;7757;52.626;4.746;2023-05-07T06:09:02;11.82;;;3.78;;
15312;SDS011;7757;52.626;4.746;2023-05-07T06:11:48;11.35;;;3.42;;
15312;SDS011;7757;52.626;4.746;2023-05-07T06:14:36;11.27;;;3.50;;
15312;SDS011;7757;52.626;4.746;2023-05-07T06:17:38;11.73;;;4.05;;
15312;SDS011;7757;52.626;4.746;2023-05-07T06:20:26;10.68;;;3.60;;
15312;SDS011;7757;52.626;4.746;2023-05-07T06:23:11;10.68;;;3.63;;
15312;SDS011;7757;52.626;4.746;2023-05-07T06:26:01;9.55;;;3.10;;
15312;SDS011;7757;52.626;4.746;2023-05-07T06:28:46;11.75;;;3.55;;
15312;SDS011;7757;52.626;4.746;2023-05-07T06:31:31;17.65;;;9.55;;
15312;SDS011;7757;52.626;4.746;2023-05-07T06:34:17;16.70;;;4.45;;
15312;SDS011;7757;52.626;4.746;2023-05-07T06:37:02;13.30;;;4.32;;
15312;SDS011;7757;52.626;4.746;2023-05-07T06:39:48;15.48;;;5.40;;
15312;SDS011;7757;52.626;4.746;2023-05-07T06:42:35;14.85;;;6.43;;
15312;SDS011;7757;52.626;4.746;2023-05-07T06:45:20;15.48;;;5.50;;
15312;SDS011;7757;52.626;4.746;2023-05-07T06:48:06;17.92;;;7.03;;
15312;SDS011;7757;52.626;4.746;2023-05-07T06:50:53;18.45;;;6.88;;
15312;SDS011;7757;52.626;4.746;2023-05-07T06:53:46;16.08;;;7.30;;
15312;SDS011;7757;52.626;4.746;2023-05-07T06:56:32;21.40;;;7.65;;
15312;SDS011;7757;52.626;4.746;2023-05-07T06:59:19;21.95;;;10.55;;
15312;SDS011;7757;52.626;4.746;2023-05-07T07:02:04;21.25;;;9.20;;
15312;SDS011;7757;52.626;4.746;2023-05-07T07:04:50;16.05;;;7.57;;
15312;SDS011;7757;52.626;4.746;2023-05-07T07:07:35;18.48;;;8.32;;
15312;SDS011;7757;52.626;4.746;2023-05-07T07:10:20;19.38;;;10.88;;
15312;SDS011;7757;52.626;4.746;2023-05-07T07:13:06;19.20;;;11.32;;
15312;SDS011;7757;52.626;4.746;2023-05-07T07:15:53;19.60;;;9.13;;
15312;SDS011;7757;52.626;4.746;2023-05-07T07:18:38;20.42;;;9.57;;
15312;SDS011;7757;52.626;4.746;2023-05-07T07:21:24;21.67;;;10.98;;
15312;SDS011;7757;52.626;4.746;2023-05-07T07:24:09;21.88;;;9.45;;
15312;SDS011;7757;52.626;4.746;2023-05-07T07:26:54;18.90;;;10.20;;
15312;SDS011;7757;52.626;4.746;2023-05-07T07:29:40;20.23;;;8.95;;
15312;SDS011;7757;52.626;4.746;2023-05-07T07:32:29;16.42;;;7.85;;
15312;SDS011;7757;52.626;4.746;2023-05-07T07:35:15;19.90;;;9.05;;
15312;SDS011;7757;52.626;4.746;2023-05-07T07:38:01;17.75;;;8.07;;
15312;SDS011;7757;52.626;4.746;2023-05-07T07:40:47;18.65;;;9.63;;
15312;SDS011;7757;52.626;4.746;2023-05-07T07:43:32;18.17;;;8.68;;
15312;SDS011;7757;52.626;4.746;2023-05-07T07:46:18;17.23;;;9.43;;
15312;SDS011;7757;52.626;4.746;2023-05-07T07:49:04;16.25;;;8.95;;
15312;SDS011;7757;52.626;4.746;2023-05-07T07:51:50;17.98;;;9.20;;
15312;SDS011;7757;52.626;4.746;2023-05-07T07:54:36;19.70;;;10.95;;
15312;SDS011;7757;52.626;4.746;2023-05-07T07:57:21;19.17;;;9.82;;
15312;SDS011;7757;52.626;4.746;2023-05-07T08:00:07;18.17;;;9.55;;
15312;SDS011;7757;52.626;4.746;2023-05-07T08:02:53;17.25;;;9.82;;
15312;SDS011;7757;52.626;4.746;2023-05-07T08:05:41;17.35;;;8.00;;
15312;SDS011;7757;52.626;4.746;2023-05-07T08:08:27;16.73;;;8.88;;
15312;SDS011;7757;52.626;4.746;2023-05-07T08:11:13;18.38;;;8.68;;
15312;SDS011;7757;52.626;4.746;2023-05-07T08:13:58;21.63;;;11.80;;
15312;SDS011;7757;52.626;4.746;2023-05-07T08:16:44;19.08;;;10.40;;
15312;SDS011;7757;52.626;4.746;2023-05-07T08:19:37;18.27;;;9.77;;
15312;SDS011;7757;52.626;4.746;2023-05-07T08:22:27;18.20;;;10.18;;
15312;SDS011;7757;52.626;4.746;2023-05-07T08:25:14;19.23;;;10.65;;
15312;SDS011;7757;52.626;4.746;2023-05-07T08:28:16;20.40;;;9.32;;
15312;SDS011;7757;52.626;4.746;2023-05-07T08:31:05;17.75;;;8.68;;
15312;SDS011;7757;52.626;4.746;2023-05-07T08:33:50;19.10;;;9.20;;
15312;SDS011;7757;52.626;4.746;2023-05-07T08:36:36;18.60;;;9.35;;
15312;SDS011;7757;52.626;4.746;2023-05-07T08:39:23;18.52;;;10.23;;
15312;SDS011;7757;52.626;4.746;2023-05-07T08:42:08;16.02;;;8.52;;
15312;SDS011;7757;52.626;4.746;2023-05-07T08:44:54;18.02;;;9.38;;
15312;SDS011;7757;52.626;4.746;2023-05-07T08:47:43;16.98;;;8.63;;
15312;SDS011;7757;52.626;4.746;2023-05-07T08:50:31;15.50;;;8.23;;
15312;SDS011;7757;52.626;4.746;2023-05-07T08:53:21;14.23;;;7.18;;
15312;SDS011;7757;52.626;4.746;2023-05-07T08:56:08;15.60;;;7.65;;
15312;SDS011;7757;52.626;4.746;2023-05-07T08:58:53;15.23;;;6.97;;
15312;SDS011;7757;52.626;4.746;2023-05-07T09:01:40;16.42;;;7.85;;
15312;SDS011;7757;52.626;4.746;2023-05-07T09:04:25;17.95;;;9.55;;
15312;SDS011;7757;52.626;4.746;2023-05-07T09:07:20;16.48;;;7.88;;
15312;SDS011;7757;52.626;4.746;2023-05-07T09:10:07;15.18;;;8.50;;
15312;SDS011;7757;52.626;4.746;2023-05-07T09:12:58;16.15;;;7.65;;
15312;SDS011;7757;52.626;4.746;2023-05-07T09:16:09;18.10;;;9.38;;
15312;SDS011;7757;52.626;4.746;2023-05-07T09:18:58;16.60;;;8.32;;
15312;SDS011;7757;52.626;4.746;2023-05-07T09:21:44;19.33;;;7.70;;
15312;SDS011;7757;52.626;4.746;2023-05-07T09:24:34;14.40;;;7.47;;
15312;SDS011;7757;52.626;4.746;2023-05-07T09:27:41;15.73;;;6.93;;
15312;SDS011;7757;52.626;4.746;2023-05-07T09:30:28;17.52;;;8.13;;
15312;SDS011;7757;52.626;4.746;2023-05-07T09:33:24;16.08;;;6.45;;
15312;SDS011;7757;52.626;4.746;2023-05-07T09:36:12;13.15;;;5.40;;
15312;SDS011;7757;52.626;4.746;2023-05-07T09:39:00;13.32;;;5.57;;
15312;SDS011;7757;52.626;4.746;2023-05-07T09:42:02;15.38;;;6.15;;
15312;SDS011;7757;52.626;4.746;2023-05-07T09:45:26;17.33;;;6.00;;
15312;SDS011;7757;52.626;4.746;2023-05-07T09:48:20;12.07;;;5.03;;
15312;SDS011;7757;52.626;4.746;2023-05-07T09:51:10;13.50;;;4.60;;
15312;SDS011;7757;52.626;4.746;2023-05-07T09:54:06;15.13;;;5.68;;
15312;SDS011;7757;52.626;4.746;2023-05-07T09:56:52;11.70;;;4.45;;
15312;SDS011;7757;52.626;4.746;2023-05-07T10:02:46;12.15;;;4.78;;
15312;SDS011;7757;52.626;4.746;2023-05-07T10:05:42;15.63;;;5.90;;
15312;SDS011;7757;52.626;4.746;2023-05-07T10:08:28;21.70;;;12.15;;
15312;SDS011;7757;52.626;4.746;2023-05-07T10:11:18;21.25;;;12.70;;
15312;SDS011;7757;52.626;4.746;2023-05-07T10:14:04;23.33;;;13.00;;
15312;SDS011;7757;52.626;4.746;2023-05-07T10:16:50;22.42;;;13.50;;
15312;SDS011;7757;52.626;4.746;2023-05-07T10:19:40;24.75;;;13.68;;
15312;SDS011;7757;52.626;4.746;2023-05-07T10:22:27;21.30;;;11.25;;
15312;SDS011;7757;52.626;4.746;2023-05-07T10:25:16;24.05;;;13.27;;
15312;SDS011;7757;52.626;4.746;2023-05-07T10:28:06;19.67;;;10.73;;
15312;SDS011;7757;52.626;4.746;2023-05-07T10:30:58;21.42;;;11.30;;
15312;SDS011;7757;52.626;4.746;2023-05-07T10:33:52;23.42;;;12.23;;
15312;SDS011;7757;52.626;4.746;2023-05-07T10:36:41;22.00;;;12.20;;
15312;SDS011;7757;52.626;4.746;2023-05-07T10:39:28;21.85;;;12.20;;
15312;SDS011;7757;52.626;4.746;2023-05-07T10:42:15;24.55;;;14.35;;
15312;SDS011;7757;52.626;4.746;2023-05-07T10:45:11;25.77;;;14.68;;
15312;SDS011;7757;52.626;4.746;2023-05-07T10:48:08;26.98;;;13.55;;
15312;SDS011;7757;52.626;4.746;2023-05-07T10:51:18;20.92;;;12.35;;
15312;SDS011;7757;52.626;4.746;2023-05-07T10:54:21;26.08;;;15.55;;
15312;SDS011;7757;52.626;4.746;2023-05-07T11:03:29;27.05;;;16.95;;
15312;SDS011;7757;52.626;4.746;2023-05-07T11:06:15;28.83;;;16.58;;
15312;SDS011;7757;52.626;4.746;2023-05-07T11:09:05;23.80;;;13.52;;
15312;SDS011;7757;52.626;4.746;2023-05-07T11:11:52;23.75;;;12.80;;
15312;SDS011;7757;52.626;4.746;2023-05-07T11:14:43;23.48;;;12.60;;
15312;SDS011;7757;52.626;4.746;2023-05-07T11:17:29;23.95;;;14.50;;
15312;SDS011;7757;52.626;4.746;2023-05-07T11:20:18;23.77;;;13.05;;
15312;SDS011;7757;52.626;4.746;2023-05-07T11:23:04;20.00;;;11.60;;
15312;SDS011;7757;52.626;4.746;2023-05-07T11:25:49;29.08;;;17.00;;
15312;SDS011;7757;52.626;4.746;2023-05-07T11:28:37;29.98;;;15.07;;
15312;SDS011;7757;52.626;4.746;2023-05-07T11:31:31;26.67;;;14.88;;
15312;SDS011;7757;52.626;4.746;2023-05-07T11:34:20;26.52;;;15.27;;
15312;SDS011;7757;52.626;4.746;2023-05-07T11:37:06;25.17;;;14.23;;
15312;SDS011;7757;52.626;4.746;2023-05-07T11:42:49;28.38;;;16.23;;
15312;SDS011;7757;52.626;4.746;2023-05-07T11:45:36;25.98;;;15.63;;
15312;SDS011;7757;52.626;4.746;2023-05-07T11:48:21;25.95;;;15.23;;
15312;SDS011;7757;52.626;4.746;2023-05-07T11:51:07;26.63;;;16.40;;
15312;SDS011;7757;52.626;4.746;2023-05-07T11:53:55;27.65;;;16.90;;
15312;SDS011;7757;52.626;4.746;2023-05-07T11:56:43;25.63;;;13.63;;
15312;SDS011;7757;52.626;4.746;2023-05-07T11:59:39;26.77;;;15.93;;
15312;SDS011;7757;52.626;4.746;2023-05-07T12:02:27;30.35;;;16.30;;
15312;SDS011;7757;52.626;4.746;2023-05-07T12:05:15;27.67;;;17.10;;
15312;SDS011;7757;52.626;4.746;2023-05-07T12:08:00;29.67;;;16.88;;
15312;SDS011;7757;52.626;4.746;2023-05-07T12:10:47;24.40;;;13.60;;
15312;SDS011;7757;52.626;4.746;2023-05-07T12:13:34;26.42;;;13.02;;
15312;SDS011;7757;52.626;4.746;2023-05-07T12:16:20;23.13;;;12.27;;
15312;SDS011;7757;52.626;4.746;2023-05-07T12:19:07;24.80;;;13.70;;
15312;SDS011;7757;52.626;4.746;2023-05-07T12:21:56;27.08;;;15.23;;
15312;SDS011;7757;52.626;4.746;2023-05-07T12:24:46;27.67;;;15.38;;
15312;SDS011;7757;52.626;4.746;2023-05-07T12:27:32;26.88;;;14.85;;
15312;SDS011;7757;52.626;4.746;2023-05-07T12:30:25;25.27;;;13.30;;
15312;SDS011;7757;52.626;4.746;2023-05-07T12:33:10;29.52;;;16.98;;
15312;SDS011;7757;52.626;4.746;2023-05-07T12:35:57;27.42;;;14.70;;
15312;SDS011;7757;52.626;4.746;2023-05-07T12:38:43;26.13;;;13.15;;
15312;SDS011;7757;52.626;4.746;2023-05-07T12:41:28;26.25;;;13.95;;
15312;SDS011;7757;52.626;4.746;2023-05-07T12:44:15;29.05;;;15.98;;
15312;SDS011;7757;52.626;4.746;2023-05-07T12:47:01;35.63;;;18.48;;
15312;SDS011;7757;52.626;4.746;2023-05-07T12:49:46;28.77;;;15.73;;
15312;SDS011;7757;52.626;4.746;2023-05-07T12:52:33;26.92;;;15.25;;
15312;SDS011;7757;52.626;4.746;2023-05-07T12:55:19;28.52;;;15.55;;
15312;SDS011;7757;52.626;4.746;2023-05-07T12:58:05;27.17;;;14.82;;
15312;SDS011;7757;52.626;4.746;2023-05-07T13:00:50;32.13;;;16.67;;
15312;SDS011;7757;52.626;4.746;2023-05-07T13:03:37;25.33;;;13.23;;
15312;SDS011;7757;52.626;4.746;2023-05-07T13:06:25;27.73;;;15.13;;
15312;SDS011;7757;52.626;4.746;2023-05-07T13:09:12;25.08;;;12.15;;
15312;SDS011;7757;52.626;4.746;2023-05-07T13:12:01;24.02;;;12.05;;
15312;SDS011;7757;52.626;4.746;2023-05-07T13:14:47;28.48;;;16.10;;
15312;SDS011;7757;52.626;4.746;2023-05-07T13:17:33;27.75;;;14.32;;
15312;SDS011;7757;52.626;4.746;2023-05-07T13:20:18;25.17;;;13.68;;
15312;SDS011;7757;52.626;4.746;2023-05-07T13:23:04;29.58;;;15.18;;
15312;SDS011;7757;52.626;4.746;2023-05-07T13:25:52;27.55;;;14.38;;
15312;SDS011;7757;52.626;4.746;2023-05-07T13:28:39;28.42;;;16.65;;
15312;SDS011;7757;52.626;4.746;2023-05-07T13:31:36;29.45;;;14.57;;
15312;SDS011;7757;52.626;4.746;2023-05-07T13:34:26;27.42;;;13.52;;
15312;SDS011;7757;52.626;4.746;2023-05-07T13:37:13;23.90;;;13.40;;
15312;SDS011;7757;52.626;4.746;2023-05-07T13:39:59;25.73;;;14.02;;
15312;SDS011;7757;52.626;4.746;2023-05-07T13:42:46;23.88;;;12.75;;
15312;SDS011;7757;52.626;4.746;2023-05-07T13:45:31;24.70;;;12.95;;
15312;SDS011;7757;52.626;4.746;2023-05-07T13:48:16;22.50;;;12.55;;
15312;SDS011;7757;52.626;4.746;2023-05-07T13:51:02;22.55;;;12.18;;
15312;SDS011;7757;52.626;4.746;2023-05-07T13:53:47;27.17;;;13.55;;
15312;SDS011;7757;52.626;4.746;2023-05-07T13:56:33;24.80;;;12.88;;
15312;SDS011;7757;52.626;4.746;2023-05-07T13:59:20;21.38;;;11.05;;
15312;SDS011;7757;52.626;4.746;2023-05-07T14:02:09;21.15;;;11.43;;
15312;SDS011;7757;52.626;4.746;2023-05-07T14:04:54;21.80;;;11.15;;
15312;SDS011;7757;52.626;4.746;2023-05-07T14:07:42;22.92;;;12.85;;
15312;SDS011;7757;52.626;4.746;2023-05-07T14:10:35;20.67;;;11.13;;
15312;SDS011;7757;52.626;4.746;2023-05-07T14:13:20;19.63;;;10.27;;
15312;SDS011;7757;52.626;4.746;2023-05-07T14:16:07;21.45;;;10.75;;
15312;SDS011;7757;52.626;4.746;2023-05-07T14:18:52;21.17;;;11.02;;
15312;SDS011;7757;52.626;4.746;2023-05-07T14:21:42;21.83;;;11.77;;
15312;SDS011;7757;52.626;4.746;2023-05-07T14:24:28;24.45;;;13.55;;
15312;SDS011;7757;52.626;4.746;2023-05-07T14:27:15;23.58;;;11.60;;
15312;SDS011;7757;52.626;4.746;2023-05-07T14:30:01;23.80;;;12.38;;
15312;SDS011;7757;52.626;4.746;2023-05-07T14:32:48;21.80;;;11.25;;
15312;SDS011;7757;52.626;4.746;2023-05-07T14:35:33;22.67;;;11.85;;
15312;SDS011;7757;52.626;4.746;2023-05-07T14:38:19;23.25;;;11.63;;
15312;SDS011;7757;52.626;4.746;2023-05-07T14:41:04;21.90;;;11.38;;
15312;SDS011;7757;52.626;4.746;2023-05-07T14:43:50;24.35;;;12.20;;
15312;SDS011;7757;52.626;4.746;2023-05-07T14:46:42;21.45;;;11.32;;
15312;SDS011;7757;52.626;4.746;2023-05-07T14:49:42;23.38;;;11.95;;
15312;SDS011;7757;52.626;4.746;2023-05-07T14:52:27;24.02;;;13.38;;
15312;SDS011;7757;52.626;4.746;2023-05-07T14:55:16;23.77;;;13.23;;
15312;SDS011;7757;52.626;4.746;2023-05-07T14:58:02;23.17;;;11.15;;
15312;SDS011;7757;52.626;4.746;2023-05-07T15:00:49;22.75;;;12.05;;
15312;SDS011;7757;52.626;4.746;2023-05-07T15:03:35;24.10;;;12.55;;
15312;SDS011;7757;52.626;4.746;2023-05-07T15:06:26;23.17;;;10.88;;
15312;SDS011;7757;52.626;4.746;2023-05-07T15:09:12;22.65;;;12.27;;
15312;SDS011;7757;52.626;4.746;2023-05-07T15:12:01;29.52;;;15.75;;
15312;SDS011;7757;52.626;4.746;2023-05-07T15:14:50;23.77;;;11.65;;
15312;SDS011;7757;52.626;4.746;2023-05-07T15:17:39;28.15;;;13.80;;
15312;SDS011;7757;52.626;4.746;2023-05-07T15:20:24;25.17;;;13.52;;
15312;SDS011;7757;52.626;4.746;2023-05-07T15:23:29;26.27;;;14.25;;
15312;SDS011;7757;52.626;4.746;2023-05-07T15:26:15;24.27;;;12.63;;
15312;SDS011;7757;52.626;4.746;2023-05-07T15:29:01;22.10;;;11.10;;
15312;SDS011;7757;52.626;4.746;2023-05-07T15:31:54;20.65;;;10.18;;
15312;SDS011;7757;52.626;4.746;2023-05-07T15:34:39;20.33;;;10.90;;
15312;SDS011;7757;52.626;4.746;2023-05-07T15:37:26;19.40;;;9.93;;
15312;SDS011;7757;52.626;4.746;2023-05-07T15:40:17;21.35;;;11.15;;
15312;SDS011;7757;52.626;4.746;2023-05-07T15:43:02;19.20;;;8.95;;
15312;SDS011;7757;52.626;4.746;2023-05-07T15:45:48;18.33;;;8.60;;
15312;SDS011;7757;52.626;4.746;2023-05-07T15:48:39;15.35;;;7.20;;
15312;SDS011;7757;52.626;4.746;2023-05-07T15:54:23;16.00;;;6.95;;
15312;SDS011;7757;52.626;4.746;2023-05-07T15:57:16;16.60;;;7.07;;
15312;SDS011;7757;52.626;4.746;2023-05-07T16:00:03;19.52;;;8.07;;
15312;SDS011;7757;52.626;4.746;2023-05-07T16:02:58;15.52;;;7.22;;
15312;SDS011;7757;52.626;4.746;2023-05-07T16:05:43;15.55;;;7.35;;
15312;SDS011;7757;52.626;4.746;2023-05-07T16:08:28;16.00;;;7.38;;
15312;SDS011;7757;52.626;4.746;2023-05-07T16:11:17;16.85;;;8.00;;
15312;SDS011;7757;52.626;4.746;2023-05-07T16:14:04;15.45;;;7.35;;
15312;SDS011;7757;52.626;4.746;2023-05-07T16:16:50;17.75;;;8.90;;
15312;SDS011;7757;52.626;4.746;2023-05-07T16:19:36;22.63;;;8.98;;
15312;SDS011;7757;52.626;4.746;2023-05-07T16:22:21;22.58;;;10.80;;
15312;SDS011;7757;52.626;4.746;2023-05-07T16:25:08;24.67;;;11.23;;
15312;SDS011;7757;52.626;4.746;2023-05-07T16:27:57;22.13;;;10.60;;
15312;SDS011;7757;52.626;4.746;2023-05-07T16:30:44;18.90;;;9.23;;
15312;SDS011;7757;52.626;4.746;2023-05-07T16:33:29;18.05;;;8.68;;
15312;SDS011;7757;52.626;4.746;2023-05-07T16:36:14;19.55;;;8.75;;
15312;SDS011;7757;52.626;4.746;2023-05-07T16:39:00;18.05;;;8.32;;
15312;SDS011;7757;52.626;4.746;2023-05-07T16:41:47;17.90;;;8.18;;
15312;SDS011;7757;52.626;4.746;2023-05-07T16:44:33;17.17;;;8.00;;
15312;SDS011;7757;52.626;4.746;2023-05-07T16:47:20;17.77;;;7.72;;
15312;SDS011;7757;52.626;4.746;2023-05-07T16:50:06;17.92;;;8.13;;
15312;SDS011;7757;52.626;4.746;2023-05-07T16:52:52;17.90;;;7.80;;
15312;SDS011;7757;52.626;4.746;2023-05-07T16:55:37;17.75;;;7.53;;
15312;SDS011;7757;52.626;4.746;2023-05-07T16:58:23;17.55;;;8.43;;
15312;SDS011;7757;52.626;4.746;2023-05-07T17:01:12;17.60;;;8.27;;